createdAt,value
2023-05-14T00:02:07.076Z,9.65
2023-05-14T00:05:00.508Z,12.50
2023-05-14T00:07:30.807Z,14.18
2023-05-14T00:09:59.420Z,7.38
2023-05-14T00:12:27.447Z,9.57
2023-05-14T00:14:58.046Z,10.50
2023-05-14T00:17:25.736Z,7.20
2023-05-14T00:19:53.521Z,10.95
2023-05-14T00:22:21.256Z,9.60
2023-05-14T00:24:48.903Z,12.90
2023-05-14T00:27:16.663Z,8.98
2023-05-14T00:29:45.732Z,11.23
2023-05-14T00:32:13.563Z,10.15
2023-05-14T00:34:41.346Z,9.07
2023-05-14T00:37:09.078Z,10.85
2023-05-14T00:39:37.079Z,7.75
2023-05-14T00:42:04.885Z,9.35
2023-05-14T00:44:32.746Z,8.00
2023-05-14T00:47:00.828Z,9.77
2023-05-14T00:49:28.809Z,7.57
2023-05-14T00:51:58.924Z,7.32
2023-05-14T00:54:28.117Z,10.35
2023-05-14T00:56:56.315Z,11.25
2023-05-14T00:59:23.908Z,10.00
2023-05-14T01:01:51.620Z,14.52
2023-05-14T01:04:19.890Z,12.20
2023-05-14T01:07:14.800Z,10.13
2023-05-14T01:10:17.442Z,10.88
2023-05-14T01:12:57.125Z,9.25
2023-05-14T01:15:30.976Z,9.02
2023-05-14T01:18:09.466Z,9.90
2023-05-14T01:20:38.167Z,12.35
2023-05-14T01:23:05.946Z,11.05
2023-05-14T01:25:33.766Z,8.73
2023-05-14T01:28:17.360Z,9.68
2023-05-14T01:31:12.098Z,13.23
2023-05-14T01:33:42.256Z,8.85
2023-05-14T01:36:10.777Z,12.65
2023-05-14T01:38:39.636Z,7.47
2023-05-14T01:41:07.550Z,8.15
2023-05-14T01:43:37.300Z,8.32
2023-05-14T01:46:05.280Z,8.95
2023-05-14T01:48:33.298Z,7.68
2023-05-14T01:51:02.239Z,9.07
2023-05-14T01:53:29.967Z,8.30
2023-05-14T01:55:57.624Z,10.40
2023-05-14T01:58:25.458Z,8.82
2023-05-14T02:00:53.149Z,8.82
2023-05-14T02:03:21.583Z,9.73
2023-05-14T02:05:49.290Z,12.65
2023-05-14T02:08:17.623Z,10.43
2023-05-14T02:10:45.422Z,9.75
2023-05-14T02:13:13.081Z,10.30
2023-05-14T02:15:40.882Z,12.02
2023-05-14T02:18:08.567Z,10.65
2023-05-14T02:20:36.274Z,11.90
2023-05-14T02:23:04.075Z,9.35
2023-05-14T02:25:31.664Z,11.23
2023-05-14T02:27:59.218Z,19.80
2023-05-14T02:30:27.003Z,13.40
2023-05-14T02:32:55.003Z,11.10
2023-05-14T02:35:22.978Z,11.02
2023-05-14T02:37:50.687Z,11.85
2023-05-14T02:40:18.387Z,10.98
2023-05-14T02:42:46.186Z,10.85
2023-05-14T02:45:13.907Z,20.45
2023-05-14T02:47:41.878Z,11.40
2023-05-14T02:50:11.167Z,10.10
2023-05-14T02:52:39.002Z,10.93
2023-05-14T02:55:07.102Z,8.38
2023-05-14T02:57:34.864Z,10.05
2023-05-14T03:00:02.555Z,11.60
2023-05-14T03:02:32.632Z,16.42
2023-05-14T03:05:00.746Z,11.50
2023-05-14T03:07:28.412Z,13.45
2023-05-14T03:09:56.397Z,17.95
2023-05-14T03:12:23.990Z,13.98
2023-05-14T03:14:51.664Z,9.50
2023-05-14T03:17:19.420Z,12.70
2023-05-14T03:19:47.102Z,16.73
2023-05-14T03:22:14.769Z,11.38
2023-05-14T03:24:42.561Z,10.88
2023-05-14T03:27:10.214Z,13.27
2023-05-14T03:29:37.896Z,12.85
2023-05-14T03:32:06.361Z,12.32
2023-05-14T03:34:34.153Z,11.35
2023-05-14T03:37:01.894Z,12.07
2023-05-14T03:39:29.527Z,15.05
2023-05-14T03:41:58.831Z,11.77
2023-05-14T03:44:26.775Z,11.98
2023-05-14T03:46:54.352Z,14.38
2023-05-14T03:49:22.415Z,13.57
2023-05-14T03:51:49.984Z,14.68
2023-05-14T03:54:17.853Z,13.43
2023-05-14T03:56:45.923Z,16.25
2023-05-14T03:59:14.225Z,12.85
2023-05-14T04:01:41.966Z,12.32
2023-05-14T04:04:09.708Z,13.68
2023-05-14T04:06:37.485Z,12.80
2023-05-14T04:09:05.286Z,13.02
2023-05-14T04:11:32.925Z,16.17
2023-05-14T04:14:00.900Z,17.25
2023-05-14T04:16:28.729Z,16.88
2023-05-14T04:18:56.599Z,13.23
2023-05-14T04:21:24.304Z,14.48
2023-05-14T04:23:51.924Z,14.45
2023-05-14T04:26:19.572Z,13.60
2023-05-14T04:28:47.509Z,15.10
2023-05-14T04:31:15.807Z,16.73
2023-05-14T04:33:43.560Z,15.05
2023-05-14T04:36:11.207Z,13.93
2023-05-14T04:38:38.930Z,17.98
2023-05-14T04:41:07.075Z,16.10
2023-05-14T04:43:34.789Z,14.68
2023-05-14T04:46:02.591Z,17.65
2023-05-14T04:48:30.437Z,16.30
2023-05-14T04:50:58.111Z,15.75
2023-05-14T04:53:25.768Z,16.30
2023-05-14T04:55:54.064Z,19.70
2023-05-14T04:58:23.535Z,17.80
2023-05-14T05:00:51.236Z,16.90
2023-05-14T05:03:18.976Z,16.40
2023-05-14T05:05:46.635Z,17.13
2023-05-14T05:08:14.265Z,12.93
2023-05-14T05:10:42.085Z,14.25
2023-05-14T05:13:09.823Z,16.23
2023-05-14T05:15:37.523Z,16.92
2023-05-14T05:18:05.355Z,16.15
2023-05-14T05:20:33.067Z,17.45
2023-05-14T05:23:00.780Z,15.63
2023-05-14T05:25:28.376Z,17.75
2023-05-14T05:27:55.979Z,15.65
2023-05-14T05:30:23.855Z,16.08
2023-05-14T05:32:51.789Z,15.38
2023-05-14T05:35:19.543Z,17.60
2023-05-14T05:37:47.143Z,16.08
2023-05-14T05:40:15.698Z,15.93
2023-05-14T05:42:43.588Z,12.13
2023-05-14T05:45:11.378Z,13.07
2023-05-14T05:47:39.034Z,11.05
2023-05-14T05:50:07.686Z,11.90
2023-05-14T05:52:35.490Z,11.73
2023-05-14T05:55:03.635Z,12.32
2023-05-14T05:57:31.333Z,11.35
2023-05-14T05:59:59.108Z,15.23
2023-05-14T06:02:26.851Z,13.77
2023-05-14T06:04:54.812Z,15.38
2023-05-14T06:07:22.461Z,19.30
2023-05-14T06:09:50.229Z,14.13
2023-05-14T06:12:17.841Z,15.20
2023-05-14T06:14:45.526Z,14.40
2023-05-14T06:17:13.101Z,12.45
2023-05-14T06:19:40.793Z,12.55
2023-05-14T06:22:08.348Z,11.63
2023-05-14T06:24:35.913Z,12.57
2023-05-14T06:27:03.717Z,12.73
2023-05-14T06:29:31.361Z,12.38
2023-05-14T06:32:03.714Z,10.23
2023-05-14T06:34:31.798Z,11.07
2023-05-14T06:37:00.261Z,16.63
2023-05-14T06:39:28.032Z,13.35
2023-05-14T06:41:55.728Z,10.93
2023-05-14T06:44:24.448Z,11.02
2023-05-14T06:46:52.072Z,17.10
2023-05-14T06:49:19.821Z,11.10
2023-05-14T06:51:47.393Z,15.73
2023-05-14T06:54:15.153Z,13.02
2023-05-14T06:56:42.821Z,9.85
2023-05-14T06:59:10.427Z,17.60
2023-05-14T07:01:38.082Z,10.60
2023-05-14T07:04:07.037Z,9.20
2023-05-14T07:06:35.110Z,12.57
2023-05-14T07:09:03.156Z,10.57
2023-05-14T07:11:30.963Z,8.45
2023-05-14T07:13:58.867Z,9.90
2023-05-14T07:16:26.842Z,18.08
2023-05-14T07:18:54.544Z,10.45
2023-05-14T07:21:22.112Z,10.35
2023-05-14T07:23:49.820Z,12.77
2023-05-14T07:26:17.606Z,10.80
2023-05-14T07:28:45.416Z,9.60
2023-05-14T07:31:13.125Z,6.38
2023-05-14T07:33:40.811Z,6.50
2023-05-14T07:36:08.935Z,9.70
2023-05-14T07:38:36.848Z,7.63
2023-05-14T07:41:04.920Z,7.65
2023-05-14T07:43:32.841Z,9.95
2023-05-14T07:46:00.550Z,6.93
2023-05-14T07:48:28.407Z,8.02
2023-05-14T07:50:56.150Z,11.60
2023-05-14T07:53:24.904Z,11.25
2023-05-14T07:55:52.736Z,8.73
2023-05-14T07:58:20.527Z,8.30
2023-05-14T08:00:48.126Z,6.53
2023-05-14T08:03:16.025Z,5.88
2023-05-14T08:05:43.727Z,5.18
2023-05-14T08:08:12.495Z,5.20
2023-05-14T08:10:40.289Z,9.52
2023-05-14T08:13:08.800Z,4.95
2023-05-14T08:15:37.017Z,8.98
2023-05-14T08:18:04.818Z,7.68
2023-05-14T08:20:32.742Z,8.20
2023-05-14T08:23:00.677Z,6.38
2023-05-14T08:25:28.367Z,5.82
2023-05-14T08:27:56.122Z,5.30
2023-05-14T08:30:24.182Z,3.22
2023-05-14T08:32:52.834Z,3.15
2023-05-14T08:35:20.721Z,6.22
2023-05-14T08:37:49.639Z,6.85
2023-05-14T08:40:17.552Z,4.57
2023-05-14T08:42:45.660Z,5.90
2023-05-14T08:45:20.113Z,6.68
2023-05-14T08:47:50.537Z,4.65
2023-05-14T08:50:23.522Z,5.45
2023-05-14T08:52:52.815Z,4.57
2023-05-14T08:55:21.116Z,6.50
2023-05-14T08:57:49.099Z,10.45
2023-05-14T09:00:16.837Z,4.45
2023-05-14T09:02:46.605Z,6.85
2023-05-14T09:05:15.408Z,3.53
2023-05-14T09:07:43.226Z,5.45
2023-05-14T09:10:12.667Z,4.97
2023-05-14T09:12:40.492Z,4.22
2023-05-14T09:15:08.800Z,5.65
2023-05-14T09:17:36.593Z,10.25
2023-05-14T09:20:05.104Z,4.53
2023-05-14T09:22:32.913Z,11.27
2023-05-14T09:25:12.246Z,4.80
2023-05-14T09:27:40.274Z,5.15
2023-05-14T09:30:13.284Z,7.35
2023-05-14T09:32:47.082Z,7.55
2023-05-14T09:35:23.863Z,5.20
2023-05-14T09:37:54.288Z,7.53
2023-05-14T09:40:24.654Z,9.70
2023-05-14T09:42:52.967Z,4.88
2023-05-14T09:45:20.856Z,5.18
2023-05-14T09:47:48.800Z,6.40
2023-05-14T09:50:16.650Z,5.30
2023-05-14T09:52:44.345Z,4.22
2023-05-14T09:55:11.973Z,6.70
2023-05-14T09:57:39.856Z,6.43
2023-05-14T10:00:09.217Z,6.38
2023-05-14T10:02:38.905Z,7.75
2023-05-14T10:05:07.818Z,3.38
2023-05-14T10:07:48.710Z,6.03
2023-05-14T10:10:20.208Z,7.68
2023-05-14T10:12:57.567Z,3.20
2023-05-14T10:15:37.826Z,8.55
2023-05-14T10:18:12.192Z,3.03
2023-05-14T10:20:41.572Z,4.28
2023-05-14T10:23:09.464Z,5.70
2023-05-14T10:25:38.021Z,5.03
2023-05-14T10:28:06.161Z,8.32
2023-05-14T10:30:33.748Z,4.95
2023-05-14T10:33:13.548Z,9.82
2023-05-14T10:36:05.921Z,3.08
2023-05-14T10:38:38.492Z,3.40
2023-05-14T10:41:21.515Z,7.75
2023-05-14T10:43:50.422Z,8.27
2023-05-14T10:46:18.302Z,13.40
2023-05-14T10:48:46.434Z,4.20
2023-05-14T10:51:17.399Z,8.25
2023-05-14T10:53:45.165Z,7.72
2023-05-14T10:56:14.378Z,8.85
2023-05-14T10:58:44.505Z,8.90
2023-05-14T11:01:13.675Z,5.47
2023-05-14T11:03:45.131Z,5.25
2023-05-14T11:06:15.862Z,6.30
2023-05-14T11:08:44.484Z,5.70
2023-05-14T11:11:12.390Z,8.23
2023-05-14T11:13:41.422Z,5.68
2023-05-14T11:16:21.788Z,8.40
2023-05-14T11:19:03.513Z,6.93
2023-05-14T11:21:32.619Z,7.22
2023-05-14T11:24:03.877Z,6.85
2023-05-14T11:26:32.017Z,9.23
2023-05-14T11:29:00.117Z,6.43
2023-05-14T11:31:28.030Z,7.45
2023-05-14T11:33:55.964Z,8.68
2023-05-14T11:36:23.610Z,4.28
2023-05-14T11:38:52.535Z,7.15
2023-05-14T11:41:23.195Z,7.38
2023-05-14T11:43:51.313Z,3.83
2023-05-14T11:46:19.702Z,6.80
2023-05-14T11:48:48.094Z,8.07
2023-05-14T11:51:15.998Z,9.52
2023-05-14T11:53:46.016Z,8.00
2023-05-14T11:56:13.909Z,6.93
2023-05-14T11:58:41.628Z,9.00
2023-05-14T12:01:13.843Z,8.38
2023-05-14T12:03:42.300Z,5.90
2023-05-14T12:06:10.295Z,8.30
2023-05-14T12:08:38.028Z,10.85
2023-05-14T12:11:05.709Z,6.22
2023-05-14T12:13:33.672Z,9.68
2023-05-14T12:16:02.658Z,4.97
2023-05-14T12:18:32.296Z,6.45
2023-05-14T12:21:05.187Z,3.97
2023-05-14T12:23:33.006Z,5.93
2023-05-14T12:26:06.938Z,6.68
2023-05-14T12:28:38.203Z,9.20
2023-05-14T12:31:06.402Z,6.50
2023-05-14T12:33:34.116Z,9.40
2023-05-14T12:36:10.074Z,8.25
2023-05-14T12:38:48.554Z,8.80
2023-05-14T12:41:17.713Z,7.70
2023-05-14T12:43:48.836Z,9.95
2023-05-14T12:46:17.010Z,4.60
2023-05-14T12:48:45.215Z,5.72
2023-05-14T12:51:16.940Z,5.68
2023-05-14T12:53:44.759Z,9.35
2023-05-14T12:56:13.737Z,6.25
2023-05-14T12:58:41.519Z,7.57
2023-05-14T13:01:09.541Z,6.07
2023-05-14T13:03:37.278Z,7.53
2023-05-14T13:06:05.174Z,4.57
2023-05-14T13:08:32.888Z,5.60
2023-05-14T13:11:00.482Z,7.13
2023-05-14T13:13:28.352Z,7.68
2023-05-14T13:15:56.179Z,5.55
2023-05-14T13:18:23.868Z,11.13
2023-05-14T13:20:51.864Z,7.65
2023-05-14T13:23:19.636Z,10.70
2023-05-14T13:25:49.749Z,8.95
2023-05-14T13:28:17.700Z,10.95
2023-05-14T13:31:06.917Z,8.35
2023-05-14T13:33:37.301Z,4.88
2023-05-14T13:36:05.812Z,6.88
2023-05-14T13:38:33.802Z,11.90
2023-05-14T13:41:04.176Z,4.95
2023-05-14T13:43:35.332Z,5.00
2023-05-14T13:46:05.266Z,5.38
2023-05-14T13:48:33.654Z,7.07
2023-05-14T13:51:01.343Z,4.00
2023-05-14T13:53:29.234Z,4.60
2023-05-14T13:55:58.285Z,8.27
2023-05-14T13:58:26.341Z,7.47
2023-05-14T14:00:54.548Z,5.18
2023-05-14T14:03:22.410Z,3.72
2023-05-14T14:05:50.201Z,9.73
2023-05-14T14:08:24.082Z,8.80
2023-05-14T14:10:54.574Z,7.22
2023-05-14T14:13:22.929Z,9.00
2023-05-14T14:15:51.210Z,6.03
2023-05-14T14:18:19.163Z,6.90
2023-05-14T14:20:47.302Z,5.30
2023-05-14T14:23:15.135Z,6.30
2023-05-14T14:25:42.771Z,6.82
2023-05-14T14:28:10.558Z,4.57
2023-05-14T14:30:38.125Z,8.75
2023-05-14T14:33:05.968Z,6.97
2023-05-14T14:35:35.269Z,5.30
2023-05-14T14:38:03.077Z,4.22
2023-05-14T14:40:34.051Z,9.63
2023-05-14T14:43:02.232Z,6.68
2023-05-14T14:45:29.995Z,6.45
2023-05-14T14:48:41.300Z,5.90
2023-05-14T14:51:09.786Z,4.65
2023-05-14T14:53:37.512Z,3.60
2023-05-14T14:56:05.963Z,8.30
2023-05-14T14:58:33.719Z,6.10
2023-05-14T15:01:01.607Z,7.05
2023-05-14T15:03:29.496Z,8.95
2023-05-14T15:05:57.335Z,5.60
2023-05-14T15:08:27.713Z,9.05
2023-05-14T15:10:57.162Z,3.25
2023-05-14T15:13:25.701Z,4.00
2023-05-14T15:15:53.438Z,6.88
2023-05-14T15:18:21.300Z,6.93
2023-05-14T15:20:49.293Z,5.72
2023-05-14T15:23:17.223Z,4.60
2023-05-14T15:25:45.134Z,4.53
2023-05-14T15:28:12.769Z,5.30
2023-05-14T15:30:40.469Z,4.38
2023-05-14T15:33:08.828Z,3.03
2023-05-14T15:35:36.857Z,6.50
2023-05-14T15:38:04.618Z,4.75
2023-05-14T15:40:34.933Z,8.32
2023-05-14T15:43:03.056Z,9.13
2023-05-14T15:45:30.712Z,5.65
2023-05-14T15:47:58.608Z,5.47
2023-05-14T15:50:27.375Z,10.18
2023-05-14T15:52:55.381Z,4.95
2023-05-14T15:55:23.149Z,5.60
2023-05-14T15:57:50.861Z,7.35
2023-05-14T16:00:19.604Z,4.85
2023-05-14T16:02:47.634Z,6.38
2023-05-14T16:05:15.454Z,4.85
2023-05-14T16:07:43.152Z,6.30
2023-05-14T16:10:11.394Z,4.78
2023-05-14T16:12:39.298Z,5.43
2023-05-14T16:15:08.182Z,6.18
2023-05-14T16:17:36.064Z,6.13
2023-05-14T16:20:07.021Z,6.50
2023-05-14T16:22:36.109Z,4.68
2023-05-14T16:25:04.924Z,6.18
2023-05-14T16:27:33.415Z,6.97
2023-05-14T16:30:01.104Z,6.47
2023-05-14T16:32:29.084Z,7.20
2023-05-14T16:34:57.088Z,4.88
2023-05-14T16:37:24.854Z,5.35
2023-05-14T16:39:52.626Z,5.35
2023-05-14T16:42:20.243Z,6.22
2023-05-14T16:44:47.868Z,6.70
2023-05-14T16:47:15.585Z,9.40
2023-05-14T16:49:43.364Z,9.15
2023-05-14T16:52:11.215Z,7.80
2023-05-14T16:54:39.230Z,9.90
2023-05-14T16:57:07.003Z,4.93
2023-05-14T16:59:34.837Z,7.90
2023-05-14T17:02:03.072Z,7.80
2023-05-14T17:04:34.750Z,6.63
2023-05-14T17:07:03.926Z,6.70
2023-05-14T17:09:31.709Z,6.97
2023-05-14T17:11:59.455Z,9.73
2023-05-14T17:14:27.376Z,6.22
2023-05-14T17:16:55.156Z,7.57
2023-05-14T17:19:22.812Z,10.43
2023-05-14T17:21:50.854Z,7.63
2023-05-14T17:24:18.622Z,3.63
2023-05-14T17:26:46.333Z,6.45
2023-05-14T17:29:17.139Z,4.82
2023-05-14T17:31:44.876Z,7.35
2023-05-14T17:34:12.533Z,4.15
2023-05-14T17:36:40.247Z,5.13
2023-05-14T17:39:07.940Z,5.78
2023-05-14T17:41:35.683Z,5.75
2023-05-14T17:44:03.323Z,8.98
2023-05-14T17:46:31.165Z,5.80
2023-05-14T17:48:58.916Z,5.55
2023-05-14T17:51:26.648Z,4.97
2023-05-14T17:53:54.331Z,8.55
2023-05-14T17:56:23.219Z,4.05
2023-05-14T17:58:51.025Z,8.13
2023-05-14T18:01:19.287Z,8.05
2023-05-14T18:03:49.562Z,10.13
2023-05-14T18:06:17.616Z,6.53
2023-05-14T18:08:45.377Z,7.13
2023-05-14T18:11:13.215Z,7.55
2023-05-14T18:13:41.094Z,6.47
2023-05-14T18:16:08.835Z,8.68
2023-05-14T18:18:36.618Z,9.48
2023-05-14T18:21:05.382Z,6.75
2023-05-14T18:23:33.602Z,9.68
2023-05-14T18:26:01.554Z,6.32
2023-05-14T18:28:29.381Z,5.70
2023-05-14T18:30:57.142Z,4.72
2023-05-14T18:33:25.806Z,5.20
2023-05-14T18:35:55.705Z,5.38
2023-05-14T18:38:23.742Z,6.75
2023-05-14T18:40:51.680Z,9.07
2023-05-14T18:43:19.786Z,4.53
2023-05-14T18:45:48.273Z,10.00
2023-05-14T18:48:16.495Z,5.57
2023-05-14T18:50:44.381Z,4.22
2023-05-14T18:53:12.179Z,8.13
2023-05-14T18:55:43.167Z,6.88
2023-05-14T18:58:12.061Z,15.25
2023-05-14T19:00:40.848Z,5.70
2023-05-14T19:03:11.334Z,6.53
2023-05-14T19:05:39.315Z,7.43
2023-05-14T19:08:07.652Z,8.25
2023-05-14T19:10:35.439Z,5.13
2023-05-14T19:13:03.547Z,7.68
2023-05-14T19:15:32.313Z,8.82
2023-05-14T19:18:00.887Z,22.58
2023-05-14T19:20:28.705Z,20.63
2023-05-14T19:22:56.335Z,21.98
2023-05-14T19:25:24.608Z,8.50
2023-05-14T19:27:53.620Z,14.05
2023-05-14T19:30:21.501Z,10.48
2023-05-14T19:32:49.647Z,12.32
2023-05-14T19:35:17.532Z,10.00
2023-05-14T19:37:46.305Z,9.15
2023-05-14T19:40:13.958Z,10.10
2023-05-14T19:42:41.711Z,8.30
2023-05-14T19:45:10.197Z,7.90
2023-05-14T19:47:37.922Z,11.00
2023-05-14T19:50:08.384Z,9.25
2023-05-14T19:52:36.188Z,9.38
2023-05-14T19:55:04.251Z,7.63
2023-05-14T19:57:31.937Z,9.25
2023-05-14T19:59:59.748Z,9.73
2023-05-14T20:02:27.505Z,8.32
2023-05-14T20:04:55.413Z,8.27
2023-05-14T20:07:24.944Z,6.22
2023-05-14T20:09:52.633Z,6.45
2023-05-14T20:12:20.360Z,8.50
2023-05-14T20:14:48.010Z,8.25
2023-05-14T20:17:15.883Z,6.32
2023-05-14T20:19:43.776Z,8.18
2023-05-14T20:22:11.403Z,12.13
2023-05-14T20:24:41.022Z,11.98
2023-05-14T20:27:08.882Z,8.27
2023-05-14T20:29:36.463Z,10.05
2023-05-14T20:32:04.500Z,7.57
2023-05-14T20:34:32.116Z,8.35
2023-05-14T20:36:59.853Z,9.85
2023-05-14T20:39:27.481Z,9.25
2023-05-14T20:41:55.134Z,8.38
2023-05-14T20:44:22.807Z,5.10
2023-05-14T20:46:50.704Z,10.00
2023-05-14T20:49:18.420Z,8.35
2023-05-14T20:51:46.135Z,6.22
2023-05-14T20:54:13.777Z,8.38
2023-05-14T20:56:41.468Z,8.57
2023-05-14T20:59:09.176Z,10.10
2023-05-14T21:01:37.068Z,13.63
2023-05-14T21:04:04.983Z,11.63
2023-05-14T21:06:32.764Z,9.13
2023-05-14T21:09:02.711Z,9.40
2023-05-14T21:11:30.396Z,12.27
2023-05-14T21:13:58.086Z,9.75
2023-05-14T21:16:25.891Z,9.07
2023-05-14T21:18:53.669Z,12.48
2023-05-14T21:21:23.986Z,15.48
2023-05-14T21:23:51.959Z,10.57
2023-05-14T21:26:22.151Z,11.30
2023-05-14T21:28:49.821Z,6.20
2023-05-14T21:31:17.562Z,11.65
2023-05-14T21:33:45.282Z,8.18
2023-05-14T21:36:13.013Z,7.97
2023-05-14T21:38:41.573Z,10.20
2023-05-14T21:41:12.128Z,8.27
2023-05-14T21:43:40.754Z,9.93
2023-05-14T21:46:08.642Z,5.95
2023-05-14T21:48:36.412Z,6.80
2023-05-14T21:51:04.265Z,7.88
2023-05-14T21:53:31.928Z,10.90
2023-05-14T21:55:59.511Z,9.57
2023-05-14T21:58:27.685Z,10.75
2023-05-14T22:00:55.280Z,5.75
2023-05-14T22:03:23.268Z,7.22
2023-05-14T22:05:51.581Z,6.78
2023-05-14T22:08:19.343Z,9.32
2023-05-14T22:10:47.539Z,6.65
2023-05-14T22:13:15.322Z,7.40
2023-05-14T22:15:42.975Z,7.00
2023-05-14T22:18:12.625Z,6.15
2023-05-14T22:20:40.525Z,8.30
2023-05-14T22:23:08.204Z,11.23
2023-05-14T22:25:35.829Z,13.60
2023-05-14T22:28:03.573Z,8.43
2023-05-14T22:30:31.239Z,7.57
2023-05-14T22:32:58.959Z,6.65
2023-05-14T22:35:27.004Z,7.35
2023-05-14T22:37:54.776Z,8.40
2023-05-14T22:40:22.404Z,9.73
2023-05-14T22:42:50.021Z,4.88
2023-05-14T22:45:17.877Z,9.40
2023-05-14T22:47:45.539Z,8.27
2023-05-14T22:50:13.312Z,7.10
2023-05-14T22:52:41.403Z,12.25
2023-05-14T22:55:09.386Z,8.98
2023-05-14T22:57:37.186Z,7.20
2023-05-14T23:00:06.972Z,6.75
2023-05-14T23:02:34.713Z,12.55
2023-05-14T23:05:02.566Z,7.97
2023-05-14T23:07:30.246Z,8.40
2023-05-14T23:09:57.924Z,6.70
2023-05-14T23:12:25.998Z,8.52
2023-05-14T23:14:53.589Z,8.65
2023-05-14T23:17:21.313Z,10.55
2023-05-14T23:19:49.026Z,6.47
2023-05-14T23:22:16.782Z,7.40
2023-05-14T23:24:45.018Z,9.27
2023-05-14T23:27:13.564Z,5.35
2023-05-14T23:29:41.235Z,10.70
2023-05-14T23:32:11.768Z,9.02
2023-05-14T23:34:39.617Z,11.93
2023-05-14T23:37:07.775Z,7.47
2023-05-14T23:39:35.391Z,9.80
2023-05-14T23:42:03.133Z,6.35
2023-05-14T23:44:30.812Z,9.15
2023-05-14T23:46:58.572Z,5.78
2023-05-14T23:49:26.363Z,7.63
2023-05-14T23:51:54.770Z,7.30
2023-05-14T23:54:22.430Z,10.30
2023-05-14T23:56:50.114Z,12.80
2023-05-14T23:59:18.407Z,18.35
